Terminal Aerodrome Forecast
Issued by NWS Cleveland, OH

Home | Current Version | Previous Version | Graphics & Text | Print | Product List | Glossary On
Versions: 1 2 3 4 5 6 7 8 9 10 11 12 13 14 15 16 17
000
FTUS41 KCLE 250500
TAFMFD
TAF
KMFD 250520Z 2506/2606 12006KT P6SM OVC080
     FM251000 09008KT P6SM VCSH OVC060
     FM251400 08012KT P6SM OVC045
     FM251800 08012G18KT 6SM -RA OVC030
      TEMPO 2520/2524 4SM -RA BR OVC015
     FM260200 02008KT P6SM VCSH OVC045
     FM260400 01008KT P6SM SCT045 OVC100=

USA.gov is the U.S. government's official web portal to all federal, state and local government web resources and services.